Time;durP1;ratioP1;P1;durP2;ratioP2;P2;SDS_P1;SDS_P2;PMS_P1;PMS_P2;Temp;Humidity;BMP_temperature;BMP_pressure;BME280_temperature;BME280_humidity;BME280_pressure;Samples;Min_cycle;Max_cycle;Signal;HPM_P1;HPM_P2
2021/04/29 00:00:43;;;;;;;15.57;2.67;;;;;;;26.45;21.44;100807.22;5058690;28;20135;-74
2021/04/29 00:03:30;;;;;;;8.32;1.88;;;;;;;26.47;21.44;100797.16;5072443;28;20131;-80
2021/04/29 00:06:17;;;;;;;9.02;1.48;;;;;;;26.42;21.58;100770.31;5073467;28;20163;-78
2021/04/29 00:09:07;;;;;;;9.15;1.52;;;;;;;26.42;21.49;100802.81;5073549;28;21955;-81
2021/04/29 00:11:56;;;;;;;12.50;2.00;;;;;;;26.43;21.81;100798.28;5073238;28;20135;-77
2021/04/29 00:14:43;;;;;;;4.13;1.08;;;;;;;26.39;21.57;100793.94;5072183;28;20132;-77
2021/04/29 00:17:31;;;;;;;4.40;1.10;;;;;;;26.40;21.67;100803.81;5071772;28;20139;-77
2021/04/29 00:20:21;;;;;;;9.70;2.33;;;;;;;26.40;21.70;100765.91;5072672;28;20045;-81
2021/04/29 00:23:09;;;;;;;8.20;1.90;;;;;;;26.35;21.90;100790.53;5073448;28;20492;-75
2021/04/29 00:25:58;;;;;;;6.35;1.63;;;;;;;26.33;21.74;100770.75;5058623;28;20094;-75
2021/04/29 00:28:45;;;;;;;9.43;2.08;;;;;;;26.36;21.96;100781.47;5058349;28;20051;-71
2021/04/29 00:31:34;;;;;;;8.27;2.03;;;;;;;26.36;22.01;100786.88;5058263;28;20127;-71
2021/04/29 00:34:21;;;;;;;13.13;2.00;;;;;;;26.31;21.76;100760.97;5072079;28;20033;-71
2021/04/29 00:37:09;;;;;;;10.60;2.33;;;;;;;26.39;22.00;100739.78;5071473;28;20122;-71
2021/04/29 00:39:56;;;;;;;6.90;1.60;;;;;;;26.39;21.86;100745.22;5071722;28;20072;-71
2021/04/29 00:42:45;;;;;;;13.55;2.42;;;;;;;26.43;21.78;100733.28;5072062;28;20072;-72
2021/04/29 00:45:32;;;;;;;9.57;1.85;;;;;;;26.45;21.87;100736.81;5074213;28;20132;-71
2021/04/29 00:48:21;;;;;;;7.97;1.92;;;;;;;26.45;21.96;100728.69;5075693;28;20123;-71
2021/04/29 00:51:08;;;;;;;9.32;2.10;;;;;;;26.44;22.00;100719.69;5076422;28;20109;-71
2021/04/29 00:53:55;;;;;;;11.60;2.33;;;;;;;26.43;22.09;100749.53;5075927;28;20093;-71
2021/04/29 00:56:43;;;;;;;10.70;1.42;;;;;;;26.32;22.37;100754.63;5076348;28;20560;-71
2021/04/29 00:59:32;;;;;;;10.95;2.10;;;;;;;26.30;22.67;100689.72;5075453;28;20421;-72
2021/04/29 01:02:29;;;;;;;8.60;2.35;;;;;;;26.26;22.46;100731.41;5075270;28;20495;-71
2021/04/29 01:05:22;;;;;;;8.15;1.95;;;;;;;26.23;22.61;100725.25;5074913;28;20064;-72
2021/04/29 01:08:13;;;;;;;8.55;1.67;;;;;;;26.22;22.70;100659.41;5060796;28;20041;-71
2021/04/29 01:11:07;;;;;;;11.20;2.00;;;;;;;26.20;22.82;100727.16;5076326;28;20087;-71
2021/04/29 01:13:57;;;;;;;45.17;3.60;;;;;;;26.29;22.53;100720.44;5075285;28;20366;-71
2021/04/29 01:16:46;;;;;;;8.05;1.50;;;;;;;26.32;22.59;100747.34;5060037;28;20072;-71
2021/04/29 01:19:42;;;;;;;8.18;2.20;;;;;;;26.29;22.80;100758.34;5077030;28;20044;-71
2021/04/29 01:22:30;;;;;;;7.07;1.67;;;;;;;26.32;22.71;100758.19;5076458;28;20843;-71
2021/04/29 01:25:22;;;;;;;10.98;2.40;;;;;;;26.32;22.94;100751.91;5075037;28;20068;-72
2021/04/29 01:28:11;;;;;;;20.75;3.00;;;;;;;26.31;22.87;100760.97;5061867;28;20040;-71
2021/04/29 01:30:59;;;;;;;6.85;1.83;;;;;;;26.24;23.06;100733.34;5061221;28;20143;-71
2021/04/29 01:33:46;;;;;;;7.43;1.80;;;;;;;26.18;23.25;100742.63;5074954;28;20052;-71
2021/04/29 01:36:35;;;;;;;9.90;1.48;;;;;;;26.19;23.17;100724.50;5074056;28;20133;-71
2021/04/29 01:39:24;;;;;;;12.43;2.00;;;;;;;26.18;23.09;100736.31;5074996;28;20094;-72
2021/04/29 01:42:12;;;;;;;4.95;1.63;;;;;;;26.18;23.08;100737.19;5076099;28;20447;-71
2021/04/29 01:45:01;;;;;;;9.50;1.70;;;;;;;26.20;23.23;100731.69;5074208;28;20051;-72
2021/04/29 01:47:49;;;;;;;10.93;2.05;;;;;;;26.18;23.41;100729.06;5075387;28;20071;-72
2021/04/29 01:50:37;;;;;;;9.32;1.92;;;;;;;26.17;23.28;100716.50;5074190;28;20503;-71
2021/04/29 01:53:26;;;;;;;9.18;2.17;;;;;;;26.14;23.56;100702.22;5074155;28;20161;-70
2021/04/29 01:56:14;;;;;;;11.10;1.50;;;;;;;26.03;23.77;100721.69;5074963;28;20099;-70
2021/04/29 01:59:01;;;;;;;10.05;1.90;;;;;;;26.00;23.75;100719.13;5074836;28;20086;-70
2021/04/29 02:01:50;;;;;;;9.25;2.30;;;;;;;26.02;23.50;100716.34;5073723;28;20149;-70
2021/04/29 02:04:38;;;;;;;8.38;1.73;;;;;;;25.95;23.70;100717.59;5075300;28;20116;-71
2021/04/29 02:07:25;;;;;;;11.23;2.00;;;;;;;25.94;23.88;100729.38;5074543;28;20556;-70
2021/04/29 02:10:16;;;;;;;6.32;1.73;;;;;;;25.92;24.00;100718.66;5073965;28;20139;-71
2021/04/29 02:13:10;;;;;;;12.07;1.50;;;;;;;25.93;24.09;100743.88;5073427;28;20127;-70
2021/04/29 02:16:03;;;;;;;7.10;1.60;;;;;;;25.88;23.98;100711.63;5074861;28;20064;-70
2021/04/29 02:18:53;;;;;;;7.70;2.00;;;;;;;25.81;24.17;100729.09;5074135;28;20121;-71
2021/04/29 02:21:43;;;;;;;12.35;1.90;;;;;;;25.77;23.94;100739.19;5074825;28;20040;-70
2021/04/29 02:24:34;;;;;;;7.90;1.60;;;;;;;25.79;24.02;100742.72;5073704;28;20127;-71
2021/04/29 02:27:21;;;;;;;6.47;1.40;;;;;;;25.70;24.28;100759.38;5073593;28;20041;-70
2021/04/29 02:30:13;;;;;;;10.25;1.70;;;;;;;25.70;24.14;100759.38;5073411;28;20147;-71
2021/04/29 02:33:01;;;;;;;6.18;1.15;;;;;;;25.69;24.28;100773.84;5073485;28;20041;-70
2021/04/29 02:35:50;;;;;;;13.70;2.97;;;;;;;25.73;24.11;100752.94;5073759;28;20047;-71
2021/04/29 02:38:39;;;;;;;8.77;2.25;;;;;;;25.82;24.05;100747.06;5074536;28;20124;-70
2021/04/29 02:41:27;;;;;;;15.20;2.25;;;;;;;25.83;23.88;100754.25;5072499;28;20140;-70
2021/04/29 02:44:15;;;;;;;4.53;1.55;;;;;;;25.86;23.45;100781.16;5072280;28;20129;-70
2021/04/29 02:47:03;;;;;;;11.02;2.15;;;;;;;25.83;23.53;100783.13;5073531;28;20426;-70
2021/04/29 02:49:50;;;;;;;14.63;2.67;;;;;;;25.87;23.80;100773.91;5074756;28;20032;-70
2021/04/29 02:52:41;;;;;;;16.00;2.53;;;;;;;25.96;23.74;100774.34;5074019;28;20155;-71
2021/04/29 02:55:28;;;;;;;9.45;2.47;;;;;;;25.98;23.66;100769.75;5074424;28;20139;-71
2021/04/29 02:58:17;;;;;;;8.30;2.20;;;;;;;25.97;23.72;100759.88;5072859;28;20075;-71
2021/04/29 03:01:04;;;;;;;24.85;3.28;;;;;;;25.97;23.38;100740.06;5073038;28;20051;-72
2021/04/29 03:03:52;;;;;;;12.43;3.25;;;;;;;26.04;21.71;100715.34;5073063;28;20472;-71
2021/04/29 03:06:39;;;;;;;6.57;1.70;;;;;;;26.16;21.10;100730.97;5073811;28;20135;-72
2021/04/29 03:09:29;;;;;;;29.13;3.42;;;;;;;26.22;21.66;100739.72;5072668;28;20179;-71
2021/04/29 03:12:17;;;;;;;8.25;2.08;;;;;;;26.14;21.84;100750.94;5059413;28;20075;-71
2021/04/29 03:15:07;;;;;;;7.53;1.77;;;;;;;26.08;21.82;100740.41;5073338;28;20135;-72
2021/04/29 03:17:54;;;;;;;9.60;2.10;;;;;;;26.04;21.42;100779.41;5071982;28;20044;-71
2021/04/29 03:20:42;;;;;;;8.10;1.83;;;;;;;26.02;20.75;100781.31;5072423;28;20075;-71
2021/04/29 03:23:29;;;;;;;7.00;1.73;;;;;;;26.00;21.12;100772.38;5072814;28;20064;-71
2021/04/29 03:26:18;;;;;;;7.38;1.58;;;;;;;25.94;21.53;100772.66;5073059;28;20139;-71
2021/04/29 03:29:05;;;;;;;7.47;1.50;;;;;;;25.87;21.69;100755.84;5073784;28;20041;-71
2021/04/29 03:31:53;;;;;;;10.70;2.25;;;;;;;25.91;21.21;100749.34;5072509;28;20060;-71
2021/04/29 03:34:40;;;;;;;30.55;3.30;;;;;;;25.90;20.92;100717.84;5073543;28;20124;-73
2021/04/29 03:37:28;;;;;;;3.78;0.85;;;;;;;25.85;21.39;100741.53;5073213;28;20440;-75
2021/04/29 03:40:16;;;;;;;23.20;2.20;;;;;;;25.69;21.75;100752.19;5072121;28;20567;-74
2021/04/29 03:43:05;;;;;;;8.73;1.45;;;;;;;25.63;21.38;100746.19;5072211;28;20537;-74
2021/04/29 03:45:53;;;;;;;5.28;1.38;;;;;;;25.72;20.89;100753.91;5073765;28;20041;-75
2021/04/29 03:48:40;;;;;;;7.80;1.20;;;;;;;25.85;19.89;100783.94;5072230;28;20072;-73
2021/04/29 03:51:27;;;;;;;5.22;1.05;;;;;;;25.86;20.28;100762.25;5072763;28;20135;-74
2021/04/29 03:54:15;;;;;;;11.27;1.83;;;;;;;25.84;20.27;100790.28;5073121;28;20475;-74
2021/04/29 03:57:03;;;;;;;4.22;1.20;;;;;;;25.78;20.28;100811.28;5072140;28;20488;-75
2021/04/29 03:59:53;;;;;;;13.82;1.58;;;;;;;25.73;20.43;100683.47;5073909;28;20082;-73
2021/04/29 04:02:40;;;;;;;14.80;1.77;;;;;;;25.58;20.63;100815.84;5073553;28;20091;-74
2021/04/29 04:05:27;;;;;;;4.88;1.00;;;;;;;25.63;19.04;100757.00;5073561;28;20041;-75
2021/04/29 04:08:15;;;;;;;2.38;0.88;;;;;;;25.67;17.66;100791.06;5072358;28;20123;-74
2021/04/29 04:11:02;;;;;;;3.00;1.05;;;;;;;25.67;17.03;100824.41;5072175;28;20059;-74
2021/04/29 04:13:50;;;;;;;4.35;0.80;;;;;;;25.69;16.47;100822.50;5072134;28;20098;-76
2021/04/29 04:16:39;;;;;;;5.65;1.10;;;;;;;25.72;16.17;100808.00;5072658;28;20042;-75
2021/04/29 04:19:27;;;;;;;3.20;0.77;;;;;;;25.75;16.03;100851.09;5074489;28;20037;-75
2021/04/29 04:22:14;;;;;;;8.00;0.73;;;;;;;25.72;15.34;100864.78;5076356;28;20044;-76
2021/04/29 04:25:02;;;;;;;5.72;1.27;;;;;;;25.68;15.49;100868.56;5075819;28;20052;-76
2021/04/29 04:27:49;;;;;;;10.77;1.55;;;;;;;25.67;14.90;100831.63;5076222;28;20408;-75
2021/04/29 04:30:37;;;;;;;4.10;1.30;;;;;;;25.67;15.76;100847.84;5075992;28;20427;-76
2021/04/29 04:33:26;;;;;;;1999.90;999.90;;;;;;;25.60;16.41;100822.91;5076528;28;20057;-77
2021/04/29 04:36:13;;;;;;;8.35;0.90;;;;;;;25.54;16.02;100838.50;5076759;28;20044;-74
2021/04/29 04:39:02;;;;;;;9.35;1.30;;;;;;;25.49;16.61;100822.50;5075756;28;20590;-75
2021/04/29 04:41:50;;;;;;;2.28;1.00;;;;;;;25.40;17.13;100880.56;5074423;28;20091;-77
2021/04/29 04:44:37;;;;;;;4.00;0.90;;;;;;;25.36;16.40;100854.63;5075322;28;20185;-75
2021/04/29 04:47:26;;;;;;;9.88;0.80;;;;;;;25.46;15.50;100782.09;5076947;28;20037;-75
2021/04/29 04:50:15;;;;;;;7.22;1.35;;;;;;;25.64;15.17;100713.69;5076454;28;20609;-73
2021/04/29 04:53:03;;;;;;;9.70;1.20;;;;;;;25.89;13.71;100767.47;5075479;28;20041;-75
2021/04/29 04:55:51;;;;;;;5.45;0.90;;;;;;;26.11;13.51;100778.16;5075431;28;20095;-76
2021/04/29 04:58:40;;;;;;;6.25;0.90;;;;;;;26.20;14.08;100815.59;5075747;28;20044;-77
2021/04/29 05:01:28;;;;;;;5.20;0.90;;;;;;;26.03;16.78;100810.13;5060652;28;20178;-74
2021/04/29 05:04:15;;;;;;;7.07;0.80;;;;;;;25.82;17.06;100819.25;5075234;28;20044;-74
2021/04/29 05:07:05;;;;;;;4.30;0.77;;;;;;;25.75;16.72;100827.63;5075424;28;20485;-75
2021/04/29 05:09:54;;;;;;;6.97;1.05;;;;;;;25.79;15.32;100813.03;5076345;28;20037;-74
2021/04/29 05:12:43;;;;;;;3.53;0.80;;;;;;;25.86;14.93;100835.28;5047584;28;20086;-76
2021/04/29 05:15:30;;;;;;;4.40;0.80;;;;;;;25.93;14.36;100841.28;5075588;28;20049;-77
2021/04/29 05:18:18;;;;;;;3.50;0.80;;;;;;;25.94;15.08;100859.25;5075066;28;20048;-75
2021/04/29 05:21:06;;;;;;;4.07;0.63;;;;;;;25.96;15.90;100938.53;5075638;28;20040;-76
2021/04/29 05:23:55;;;;;;;1.92;0.60;;;;;;;26.01;16.20;101051.03;5075254;28;20041;-75
2021/04/29 05:26:42;;;;;;;4.22;0.90;;;;;;;26.00;17.41;101106.09;5076098;28;20049;-74
2021/04/29 05:29:29;;;;;;;2.53;0.85;;;;;;;26.13;17.43;101082.09;5074919;28;20040;-76
2021/04/29 05:32:18;;;;;;;5.55;0.95;;;;;;;26.17;17.01;101084.63;5076157;28;20068;-74
2021/04/29 05:35:06;;;;;;;4.10;0.90;;;;;;;26.20;16.71;101089.00;5075320;28;20067;-75
2021/04/29 05:37:54;;;;;;;1.85;0.77;;;;;;;26.33;16.54;101100.19;5075340;28;20060;-75
2021/04/29 05:40:42;;;;;;;3.88;0.95;;;;;;;26.36;15.95;101083.81;5075778;28;20094;-74
2021/04/29 05:43:30;;;;;;;7.07;1.30;;;;;;;26.39;15.91;101078.25;5075534;28;20041;-74
2021/04/29 05:46:17;;;;;;;3.40;0.55;;;;;;;26.40;15.98;101058.38;5074275;28;20033;-75
2021/04/29 05:49:05;;;;;;;2.22;0.90;;;;;;;26.38;16.00;101046.75;5075130;28;20142;-74
2021/04/29 05:51:52;;;;;;;5.28;0.90;;;;;;;26.33;15.65;101063.16;5074100;28;20144;-75
2021/04/29 05:54:40;;;;;;;2.83;0.68;;;;;;;26.31;15.62;101061.50;5073571;28;20097;-74
2021/04/29 05:57:28;;;;;;;2.72;0.93;;;;;;;26.33;16.13;101024.38;5060531;28;20090;-75
2021/04/29 06:00:16;;;;;;;4.18;0.90;;;;;;;26.31;15.45;100954.09;5074977;28;20563;-75
2021/04/29 06:03:04;;;;;;;187.25;25.50;;;;;;;26.29;15.47;100950.56;5074270;28;20170;-74
2021/04/29 06:05:51;;;;;;;2.88;1.10;;;;;;;26.33;15.36;100926.91;5074427;28;20040;-75
2021/04/29 06:08:38;;;;;;;4.20;1.20;;;;;;;26.44;14.91;100928.19;5074491;28;20139;-77
2021/04/29 06:11:26;;;;;;;3.20;0.70;;;;;;;26.58;14.28;101000.66;5073335;28;20056;-75
2021/04/29 06:14:14;;;;;;;5.38;0.95;;;;;;;26.89;14.62;101073.28;5073715;28;20131;-74
2021/04/29 06:17:02;;;;;;;3.95;1.10;;;;;;;27.09;15.03;101094.03;5073782;28;20131;-74
2021/04/29 06:19:49;;;;;;;2.92;0.80;;;;;;;27.22;15.23;101109.63;5073297;28;20076;-73
2021/04/29 06:22:37;;;;;;;4.35;0.50;;;;;;;27.32;15.30;101112.78;5073533;28;20485;-75
2021/04/29 06:25:24;;;;;;;3.90;1.20;;;;;;;27.38;15.54;101131.47;5046047;28;20044;-75
2021/04/29 06:28:12;;;;;;;3.22;0.80;;;;;;;27.42;15.76;101132.22;5073930;28;20127;-73
2021/04/29 06:31:01;;;;;;;3.30;1.00;;;;;;;27.63;16.28;101129.38;5072911;28;20052;-74
2021/04/29 06:33:48;;;;;;;2.63;1.10;;;;;;;27.81;16.12;101141.13;5074546;28;20079;-75
2021/04/29 06:36:36;;;;;;;4.38;0.95;;;;;;;28.14;16.20;101133.16;5073940;28;20127;-75
2021/04/29 06:39:25;;;;;;;6.05;0.80;;;;;;;28.80;16.11;101127.88;5075008;28;20463;-74
2021/04/29 06:42:12;;;;;;;4.70;1.15;;;;;;;29.44;15.72;101113.44;5074406;28;20049;-74
2021/04/29 06:45:00;;;;;;;6.45;0.85;;;;;;;30.32;15.52;101108.22;5059689;28;20080;-74
2021/04/29 06:47:49;;;;;;;3.75;0.70;;;;;;;30.68;14.57;101084.16;5074804;28;20051;-75
2021/04/29 06:50:37;;;;;;;4.47;0.77;;;;;;;30.35;14.24;101075.31;5073855;28;20041;-77
2021/04/29 06:53:24;;;;;;;3.15;0.80;;;;;;;29.87;14.27;101058.22;5074809;28;20131;-78
2021/04/29 06:56:12;;;;;;;8.65;1.35;;;;;;;29.58;14.49;101045.47;5073452;28;20132;-78
2021/04/29 06:58:59;;;;;;;3.60;0.75;;;;;;;29.30;14.67;101044.34;5073987;28;20396;-78
2021/04/29 07:01:47;;;;;;;9.32;1.40;;;;;;;29.01;14.73;101031.53;5073496;28;20451;-77
2021/04/29 07:04:36;;;;;;;5.97;1.48;;;;;;;28.94;15.08;101046.44;5074284;28;20056;-75
2021/04/29 07:07:23;;;;;;;3.97;0.90;;;;;;;29.24;15.31;101036.53;5074506;28;20127;-75
2021/04/29 07:10:11;;;;;;;5.57;0.68;;;;;;;29.25;15.31;101040.13;5073341;28;20060;-75
2021/04/29 07:12:59;;;;;;;2.30;1.00;;;;;;;28.95;14.84;101029.13;5074072;28;20127;-77
2021/04/29 07:15:46;;;;;;;3.55;1.38;;;;;;;28.63;15.02;101028.19;5072405;28;20082;-75
2021/04/29 07:18:34;;;;;;;3.78;0.98;;;;;;;28.42;14.96;100965.03;5058850;28;20045;-76
2021/04/29 07:21:23;;;;;;;5.65;1.05;;;;;;;28.37;15.14;100993.41;5059011;28;20447;-75
2021/04/29 07:24:10;;;;;;;3.35;1.30;;;;;;;28.39;14.75;100995.09;5072598;28;20136;-75
2021/04/29 07:26:58;;;;;;;4.45;1.38;;;;;;;28.39;14.49;100997.81;5073925;28;20139;-75
2021/04/29 07:29:45;;;;;;;4.40;0.80;;;;;;;28.40;14.51;100986.00;5072584;28;20044;-75
2021/04/29 07:32:33;;;;;;;3.95;0.80;;;;;;;28.38;13.89;100987.91;5074076;28;20060;-76
2021/04/29 07:35:22;;;;;;;4.57;1.02;;;;;;;28.37;13.95;101010.59;5073936;28;20504;-75
2021/04/29 07:38:11;;;;;;;4.07;1.10;;;;;;;28.41;13.89;100990.47;5073892;28;20412;-77
2021/04/29 07:40:59;;;;;;;3.45;0.60;;;;;;;28.39;14.17;101000.53;5072271;28;20036;-77
2021/04/29 07:43:46;;;;;;;7.07;0.93;;;;;;;28.45;14.01;101008.34;5072389;28;20068;-76
2021/04/29 07:46:34;;;;;;;4.35;1.20;;;;;;;28.55;14.14;100987.84;5072210;28;20083;-77
2021/04/29 07:49:21;;;;;;;18.92;2.10;;;;;;;28.69;14.16;101008.81;5073170;28;20131;-76
2021/04/29 07:52:09;;;;;;;6.25;1.10;;;;;;;28.89;14.20;101000.47;5071914;28;20048;-74
2021/04/29 07:54:57;;;;;;;33.97;1.83;;;;;;;29.11;14.37;100994.69;5074989;28;20445;-76
2021/04/29 07:57:46;;;;;;;4.50;1.33;;;;;;;29.40;14.05;100997.59;5077024;28;20075;-77
2021/04/29 08:00:33;;;;;;;6.28;1.40;;;;;;;29.68;13.60;100990.41;5076881;28;20094;-78
2021/04/29 08:03:21;;;;;;;3.95;1.02;;;;;;;30.08;13.42;100998.88;5076467;28;20060;-75
2021/04/29 08:06:08;;;;;;;25.88;2.35;;;;;;;30.46;12.89;100997.38;5077030;28;20504;-76
2021/04/29 08:08:56;;;;;;;6.18;0.85;;;;;;;30.53;12.45;100988.81;5077314;28;20074;-77
2021/04/29 08:11:45;;;;;;;16.17;1.23;;;;;;;30.17;12.11;101016.53;5076338;28;20565;-76
2021/04/29 08:14:32;;;;;;;14.02;1.63;;;;;;;29.90;12.38;101002.72;5076416;28;20099;-76
2021/04/29 08:17:19;;;;;;;6.30;1.05;;;;;;;29.65;12.20;101022.38;5076831;28;20064;-77
2021/04/29 08:20:07;;;;;;;5.18;0.90;;;;;;;29.54;12.08;101017.56;5076887;28;20078;-76
2021/04/29 08:22:55;;;;;;;5.28;0.93;;;;;;;29.38;11.79;100994.06;5076851;28;20131;-76
2021/04/29 08:25:43;;;;;;;3.60;0.82;;;;;;;29.38;11.90;100988.63;5076690;28;20132;-76
2021/04/29 08:28:31;;;;;;;34.00;2.75;;;;;;;29.47;11.66;101005.28;5075537;28;20120;-76
2021/04/29 08:31:19;;;;;;;17.40;1.35;;;;;;;29.71;11.84;101011.13;5076012;28;20525;-75
2021/04/29 08:34:07;;;;;;;41.22;3.95;;;;;;;29.83;11.46;101012.22;5077729;28;20118;-75
2021/04/29 08:36:54;;;;;;;5.38;0.90;;;;;;;29.95;11.62;101038.75;5076536;28;20064;-76
2021/04/29 08:39:41;;;;;;;2.08;0.70;;;;;;;30.15;11.82;101032.97;5075558;28;20510;-75
2021/04/29 08:42:30;;;;;;;3.10;0.82;;;;;;;30.33;11.51;101030.94;5074994;28;20136;-76
2021/04/29 08:45:18;;;;;;;2.95;0.85;;;;;;;30.36;11.17;101055.28;5075473;28;20385;-76
2021/04/29 08:48:07;;;;;;;5.97;1.10;;;;;;;30.31;11.20;101058.28;5075796;28;20075;-74
2021/04/29 08:50:54;;;;;;;4.50;1.02;;;;;;;30.40;11.42;101059.56;5075086;28;20512;-74
2021/04/29 08:53:42;;;;;;;6.07;0.70;;;;;;;30.23;11.14;101044.25;5077817;28;20045;-72
2021/04/29 08:56:30;;;;;;;11.82;1.55;;;;;;;30.10;11.49;101067.78;5075470;28;20090;-75
2021/04/29 08:59:17;;;;;;;6.20;2.05;;;;;;;29.97;11.30;101064.91;5075932;28;20124;-76
2021/04/29 09:02:06;;;;;;;5.47;2.00;;;;;;;29.92;11.32;101060.72;5061789;28;20040;-74
2021/04/29 09:04:53;;;;;;;5.03;1.80;;;;;;;29.85;11.23;101048.41;5076229;28;20075;-74
2021/04/29 09:07:52;;;;;;;4.18;1.60;;;;;;;29.83;11.16;101092.06;5075398;28;20033;-74
2021/04/29 09:10:44;;;;;;;1.58;0.93;;;;;;;29.90;11.32;101065.34;5075149;28;20496;-77
2021/04/29 09:13:31;;;;;;;3.53;1.33;;;;;;;30.33;11.64;101018.19;5076437;28;20040;-76
2021/04/29 09:16:19;;;;;;;5.00;1.40;;;;;;;30.74;11.58;101055.63;5074345;28;20068;-74
2021/04/29 09:19:18;;;;;;;7.72;1.30;;;;;;;30.52;11.72;101037.03;5074768;28;20135;-74
2021/04/29 09:22:18;;;;;;;4.03;1.08;;;;;;;30.04;12.18;101058.13;5075769;28;20037;-72
2021/04/29 09:25:13;;;;;;;4.35;1.50;;;;;;;29.75;12.19;101091.63;5075355;28;20044;-72
2021/04/29 09:28:03;;;;;;;5.00;1.33;;;;;;;29.63;12.80;101070.56;5076080;28;20480;-72
2021/04/29 09:31:04;;;;;;;4.13;1.40;;;;;;;29.70;13.10;101052.91;5076014;28;20051;-75
2021/04/29 09:33:55;;;;;;;4.93;1.40;;;;;;;29.73;13.11;101045.44;5075653;28;20040;-77
2021/04/29 09:36:46;;;;;;;3.03;1.00;;;;;;;29.82;13.04;101043.13;5075489;28;20056;-78
2021/04/29 09:39:36;;;;;;;2.30;1.15;;;;;;;29.72;13.04;101031.94;5074484;28;20045;-80
2021/04/29 09:42:33;;;;;;;1.83;0.73;;;;;;;29.73;12.96;101017.38;5074492;28;20501;-80
2021/04/29 09:45:27;;;;;;;3.38;1.10;;;;;;;29.93;13.01;101021.63;5074588;28;20045;-78
2021/04/29 09:48:20;;;;;;;2.33;0.68;;;;;;;30.14;12.76;101016.69;5062844;28;20097;-77
2021/04/29 09:51:09;;;;;;;4.85;0.95;;;;;;;30.35;12.90;101001.75;5075552;28;20044;-77
2021/04/29 09:53:58;;;;;;;1.73;0.65;;;;;;;30.61;12.91;100992.81;5074013;28;20056;-80
2021/04/29 09:56:53;;;;;;;2.30;0.80;;;;;;;30.85;12.60;100999.41;5061173;28;20196;-78
2021/04/29 09:59:42;;;;;;;4.65;0.70;;;;;;;30.93;13.19;101015.28;5076122;28;20098;-76
2021/04/29 10:02:30;;;;;;;2.28;0.65;;;;;;;31.13;13.13;101003.09;5074488;28;20049;-76
2021/04/29 10:05:17;;;;;;;3.30;1.08;;;;;;;31.32;12.87;100997.28;5075900;28;20131;-74
2021/04/29 10:08:07;;;;;;;6.70;1.10;;;;;;;31.44;12.10;101005.53;5074570;28;20118;-75
2021/04/29 10:10:58;;;;;;;1.75;0.98;;;;;;;31.47;12.49;101005.31;5074288;28;20508;-78
2021/04/29 10:13:46;;;;;;;4.05;0.88;;;;;;;31.38;12.96;100975.03;5075042;28;20041;-77
2021/04/29 10:16:34;;;;;;;10.10;1.10;;;;;;;30.89;12.92;100984.63;5073599;28;20055;-74
2021/04/29 10:19:55;;;;;;;5.35;1.27;;;;;;;30.45;13.96;100959.31;5090374;27;20435;-73
2021/04/29 10:22:46;;;;;;;5.93;0.93;;;;;;;30.20;14.37;100978.19;5064529;28;20064;-73
2021/04/29 10:25:35;;;;;;;7.63;1.27;;;;;;;30.24;14.93;100985.22;5054521;28;71697;-75
2021/04/29 10:28:34;;;;;;;3.53;0.90;;;;;;;30.46;15.24;100977.41;5057807;28;20076;-73
2021/04/29 10:31:03;;;;;;;5.10;1.27;;;;;;;30.55;15.43;100979.59;5041835;28;20049;-72
2021/04/29 10:33:37;;;;;;;3.35;1.40;;;;;;;30.80;15.70;100944.31;5028685;28;20046;-73
2021/04/29 10:36:13;;;;;;;5.32;1.42;;;;;;;30.94;15.95;100958.88;5026156;28;20041;-72
2021/04/29 10:38:40;;;;;;;5.63;1.65;;;;;;;30.72;16.01;100959.44;5026914;28;20595;-75
2021/04/29 10:41:18;;;;;;;6.47;1.65;;;;;;;30.72;16.15;100921.25;5027506;28;20374;-74
2021/04/29 10:43:47;;;;;;;4.38;1.00;;;;;;;30.76;15.97;100956.41;5024441;28;20129;-73
2021/04/29 10:46:26;;;;;;;5.97;1.85;;;;;;;30.81;16.25;100947.91;5026765;28;20083;-73
2021/04/29 10:48:54;;;;;;;9.50;1.70;;;;;;;30.71;16.37;100950.38;5025491;28;20497;-72
2021/04/29 10:51:32;;;;;;;4.78;1.33;;;;;;;30.47;16.75;100949.19;5028357;28;20033;-74
2021/04/29 10:54:18;;;;;;;3.70;1.35;;;;;;;30.33;16.99;100969.13;5027803;28;20084;-73
2021/04/29 10:57:02;;;;;;;3.30;1.40;;;;;;;30.34;17.47;100960.00;5024081;28;20494;-75
2021/04/29 10:59:41;;;;;;;7.20;1.33;;;;;;;30.32;17.54;100947.47;5024689;28;20048;-75
2021/04/29 11:02:20;;;;;;;4.95;1.48;;;;;;;30.21;17.44;100939.06;5024316;28;20555;-73
2021/04/29 11:04:51;;;;;;;7.72;1.52;;;;;;;30.08;17.70;100930.78;5024118;28;20065;-74
2021/04/29 11:07:20;;;;;;;4.32;1.33;;;;;;;29.95;17.97;100944.31;5026049;28;20034;-77
2021/04/29 11:10:01;;;;;;;7.57;1.70;;;;;;;29.99;18.28;100937.72;5026799;28;20041;-73
2021/04/29 11:12:42;;;;;;;6.82;1.23;;;;;;;30.01;18.21;100948.50;5025455;28;20058;-74
2021/04/29 11:15:28;;;;;;;3.63;1.30;;;;;;;29.76;18.22;100950.94;5027750;28;20042;-75
2021/04/29 11:18:07;;;;;;;5.95;1.40;;;;;;;29.54;18.62;100952.25;5027482;28;20057;-76
2021/04/29 11:20:49;;;;;;;4.03;1.20;;;;;;;29.46;18.52;100932.81;5026398;28;20045;-75
2021/04/29 11:23:19;;;;;;;7.47;1.48;;;;;;;29.41;18.93;100929.44;5027911;28;20029;-76
2021/04/29 11:25:46;;;;;;;8.55;2.90;;;;;;;29.27;19.26;100938.44;5027905;28;20034;-75
2021/04/29 11:28:15;;;;;;;7.80;1.58;;;;;;;29.14;19.55;100944.69;5021055;28;20034;-72
2021/04/29 11:30:43;;;;;;;5.63;1.05;;;;;;;29.11;19.56;100944.84;5015660;28;20064;-75
2021/04/29 11:33:12;;;;;;;5.82;1.58;;;;;;;29.05;19.41;100934.34;5013430;28;20049;-73
2021/04/29 11:35:42;;;;;;;5.82;1.50;;;;;;;28.86;19.53;100975.31;5014470;28;20038;-74
2021/04/29 11:38:12;;;;;;;7.43;1.42;;;;;;;28.67;19.77;100950.09;5013412;28;20469;-73
2021/04/29 11:40:41;;;;;;;6.00;1.20;;;;;;;28.52;19.97;100976.28;5012324;28;20034;-75
2021/04/29 11:43:09;;;;;;;3.95;1.35;;;;;;;28.33;20.29;100973.69;5013954;28;20133;-75
2021/04/29 11:45:41;;;;;;;6.63;1.45;;;;;;;28.18;20.59;100974.53;5014265;28;20042;-75
2021/04/29 11:48:09;;;;;;;5.05;1.60;;;;;;;28.07;21.15;100950.66;5011398;28;20037;-72
2021/04/29 11:50:39;;;;;;;8.32;1.40;;;;;;;27.88;21.71;100925.44;5013734;28;20046;-74
2021/04/29 11:53:13;;;;;;;4.68;1.50;;;;;;;27.83;21.76;100992.66;5013658;28;20064;-75
2021/04/29 11:55:42;;;;;;;;;;;;;;;27.77;22.28;100972.13;5012765;28;20087;-77
2021/04/29 11:58:11;;;;;;;5.03;1.30;;;;;;;27.67;22.12;101007.97;5013945;28;20024;-75
2021/04/29 12:00:39;;;;;;;6.05;1.65;;;;;;;27.61;22.73;101001.03;5013374;28;20046;-73
2021/04/29 12:03:08;;;;;;;8.55;1.65;;;;;;;27.52;23.18;100974.38;5012911;28;20556;-73
2021/04/29 12:05:38;;;;;;;8.10;2.83;;;;;;;27.56;23.23;101027.53;5008523;28;20033;-65
2021/04/29 12:08:10;;;;;;;13.23;4.85;;;;;;;27.56;23.28;101029.38;5012693;28;20068;-65
2021/04/29 12:10:48;;;;;;;11.88;4.28;;;;;;;27.53;23.76;100981.56;5013699;28;20121;-65
2021/04/29 12:13:16;;;;;;;6.28;2.85;;;;;;;27.39;23.87;100978.63;5009201;28;20045;-65
2021/04/29 12:15:43;;;;;;;7.85;2.80;;;;;;;27.29;24.33;100990.91;5012442;28;20103;-65
2021/04/29 12:18:12;;;;;;;7.22;2.22;;;;;;;27.20;24.70;100985.94;5012771;28;20073;-65
2021/04/29 12:20:40;;;;;;;7.25;2.35;;;;;;;27.11;24.68;100980.97;5013723;28;20498;-66
2021/04/29 12:23:12;;;;;;;5.97;1.55;;;;;;;27.09;24.46;100983.75;5012711;28;20050;-66
2021/04/29 12:25:40;;;;;;;6.35;1.80;;;;;;;27.11;24.65;101013.50;5009983;28;20053;-65
2021/04/29 12:28:19;;;;;;;5.00;1.40;;;;;;;27.13;24.95;101019.72;5013450;28;20065;-65
2021/04/29 12:30:46;;;;;;;8.90;1.52;;;;;;;27.07;25.11;101009.19;5013198;28;20120;-65
2021/04/29 12:33:19;;;;;;;4.82;1.48;;;;;;;27.04;24.97;101001.22;5012318;28;20038;-66
2021/04/29 12:35:46;;;;;;;5.45;1.45;;;;;;;26.94;25.74;100998.94;5009515;28;20073;-65
2021/04/29 12:38:13;;;;;;;9.15;1.48;;;;;;;26.95;24.78;100979.00;5012935;28;20045;-65
2021/04/29 12:40:42;;;;;;;7.05;1.27;;;;;;;27.07;24.32;100979.34;5012537;28;20038;-66
2021/04/29 12:43:12;;;;;;;8.98;1.70;;;;;;;27.18;24.04;100993.25;5011353;28;20045;-65
2021/04/29 12:45:55;;;;;;;6.60;2.17;;;;;;;27.30;25.44;100969.16;5013267;28;20571;-65
2021/04/29 12:48:30;;;;;;;7.10;1.55;;;;;;;27.28;25.92;100957.50;5009812;28;20057;-67